Wood Dale, IL (60191)

3:22 AM CST on March 04, 2015 (GMT -0600)
WDJH | Change Station
CLOSE
Current Station
Personal Weather Station
Location: Wood Dale, IL
Elevation: 719 ft
Nearby Weather Stations

Elev 719 ft 41.98 °N, 87.98 °W | Updated 5 seconds ago

Mostly Cloudy
Mostly Cloudy
25.9 °F
Feels Like 18 °F
N
7.0
Wind Variable Wind from WNW
Gusts 16.0 mph

Today
High -- | Low -- °F
--% Chance of Precip.
Yesterday
High -- | Low -- °F
Precip. -- in
6:22 AM 5:45 PM
Waxing Gibbous, 98% visible
Pressure 29.91 in
Visibility 10.0 miles
Clouds Few 3000 ft
Mostly Cloudy 20000 ft
Windchill 18 °F
Dew Point 21 °F
Humidity 83%
Rainfall 0.00 in
Snow Depth Not available.
UV 0 out of 12
Pollen .50 out of 12
Air Quality Not available.
Flu Activity Not available.
METAR KORD 040851Z 28014KT 10SM FEW030 BKN200 M03/M06 A2989 RMK AO2 SLP128 T10281061 53007

More Conditions Fewer Conditions

Pressure 29.91 in
Visibility 10.0 miles
Clouds Few 3000 ft
Mostly Cloudy 20000 ft
Windchill 18 °F
Dew Point 21 °F
Humidity 83%
Rainfall 0.00 in
Snow Depth Not available.
UV 0 out of 12
Pollen .50 out of 12
Air Quality Not available.
Flu Activity Not available.
METAR KORD 040851Z 28014KT 10SM FEW030 BKN200 M03/M06 A2989 RMK AO2 SLP128 T10281061 53007

More Conditions Fewer Conditions

10-Day Weather Forecast

Almanac

Astronomy

Mar. 04, 2015 Rise Set
Actual Time
Civil Twilight
Nautical Twilight
Astronomical Twilight
Moon
Length of Visible Light
Length of Day
Tomorrow will be .
, % of the Moon is Illuminated

Today's Extremes

State Highs State Lows

Community

WunderPhotos

Upload Photos

1,802,419 photos uploaded!

WunderBlogs® & News

Nearby

Air Quality

  Air Quality AQ Index Pollutant
Not available.

Snow Depth

Station Depth Elevation

Earthquake Activity

City Distance Mag. Time & Date
Minimum magnitude displayed is 2.5.

Coastal Water Temperatures

Place Temperature

Nearby Weather Stations